North Cascades National Park, WA

1:48 AM PST on February 11, 2016 (GMT -0800)
Newhalem Helistop | | Change Station
CLOSE
Current Station
Personal Weather Station
Location: Newhalem, WA
Elevation: 504 ft
Nearby Weather Stations

Elev 504 ft 48.67 °N, 121.25 °W | Updated 25 seconds ago

Partly Cloudy
Partly Cloudy
40.8 °F
Feels Like 41 °F
N
0.0
Wind Variable Wind from West
Gusts 3.0 mph

Today
High -- | Low -- °F
--% Chance of Precip.
Yesterday
High -- | Low -- °F
Precip. -- in
Pressure 30.30 in
Visibility 1.8 miles
Clouds Clear
Windchill 41 °F
Dew Point 41 °F
Humidity 100%
Rainfall 0.00 in
Snow Depth Not available.
7:20 AM 5:20 PM
Waxing Crescent, 11% visible
METAR KAWO 110935Z AUTO 01005KT 1 3/4SM CLR 06/03 A3030 RMK AO1
Pressure 30.30 in
Visibility 1.8 miles
Clouds Clear
Windchill 41 °F
Dew Point 41 °F
Humidity 100%
Rainfall 0.00 in
Snow Depth Not available.
7:20 AM 5:20 PM
Waxing Crescent, 11% visible
METAR KAWO 110935Z AUTO 01005KT 1 3/4SM CLR 06/03 A3030 RMK AO1

10-Day Weather Forecast

Almanac

Astronomy

Feb. 11, 2016 Rise Set
Actual Time
Civil Twilight
Nautical Twilight
Astronomical Twilight
Moon
Length of Visible Light
Length of Day
Tomorrow will be .
, % of the Moon is Illuminated

Today's Extremes

State Highs State Lows

Community

WunderPhotos

Upload Photos

1,892,030 photos uploaded!

WunderBlog® & News

Nearby

Air Quality

  Air Quality AQ Index Pollutant
Not available.

Snow Depth

Station Depth Elevation

Earthquake Activity

City Distance Mag. Time & Date
Minimum magnitude displayed is 2.5.

Coastal Water Temperatures

Place Temperature

Stations

Nearby Weather Stations

Station Location Temp. Windchill Dew Point Humidity Wind Precip. Elev Updated Type
                   

Watches & Warnings

There are currently no watches in effect.